sensor_id;sensor_type;location;lat;lon;timestamp;pressure;altitude;pressure_sealevel;temperature;humidity
9695;BME280;4690;52.422;13.486;2023-03-19T00:05:27;101053.25;;;10.52;68.68
9695;BME280;4690;52.422;13.486;2023-03-19T00:07:52;101050.72;;;10.50;68.80
9695;BME280;4690;52.422;13.486;2023-03-19T00:10:18;101050.53;;;10.45;67.75
9695;BME280;4690;52.422;13.486;2023-03-19T00:12:44;101052.03;;;10.41;67.94
9695;BME280;4690;52.422;13.486;2023-03-19T00:15:11;101044.03;;;10.40;67.52
9695;BME280;4690;52.422;13.486;2023-03-19T00:17:39;101057.94;;;10.38;67.90
9695;BME280;4690;52.422;13.486;2023-03-19T00:20:43;101044.25;;;10.38;67.64
9695;BME280;4690;52.422;13.486;2023-03-19T00:23:09;101044.03;;;10.40;67.35
9695;BME280;4690;52.422;13.486;2023-03-19T00:25:34;101042.97;;;10.41;67.68
9695;BME280;4690;52.422;13.486;2023-03-19T00:28:00;101041.50;;;10.38;67.51
9695;BME280;4690;52.422;13.486;2023-03-19T00:30:26;101044.47;;;10.37;68.00
9695;BME280;4690;52.422;13.486;2023-03-19T00:32:52;101040.91;;;10.36;67.49
9695;BME280;4690;52.422;13.486;2023-03-19T00:35:17;101039.19;;;10.35;67.27
9695;BME280;4690;52.422;13.486;2023-03-19T00:37:43;101043.44;;;10.31;67.25
9695;BME280;4690;52.422;13.486;2023-03-19T00:40:10;101040.91;;;10.29;67.12
9695;BME280;4690;52.422;13.486;2023-03-19T00:42:36;101045.97;;;10.26;67.24
9695;BME280;4690;52.422;13.486;2023-03-19T00:45:02;101047.25;;;10.23;67.20
9695;BME280;4690;52.422;13.486;2023-03-19T00:47:28;101044.94;;;10.20;67.10
9695;BME280;4690;52.422;13.486;2023-03-19T00:49:53;101054.41;;;10.18;66.71
9695;BME280;4690;52.422;13.486;2023-03-19T00:52:20;101050.44;;;10.14;66.63
9695;BME280;4690;52.422;13.486;2023-03-19T00:54:45;101048.13;;;10.10;66.87
9695;BME280;4690;52.422;13.486;2023-03-19T00:57:11;101048.56;;;10.07;66.93
9695;BME280;4690;52.422;13.486;2023-03-19T00:59:37;101053.44;;;10.05;66.53
9695;BME280;4690;52.422;13.486;2023-03-19T01:02:03;101057.63;;;10.01;66.71
9695;BME280;4690;52.422;13.486;2023-03-19T01:04:29;101061.88;;;9.97;66.63
9695;BME280;4690;52.422;13.486;2023-03-19T01:06:55;101059.56;;;9.94;67.04
9695;BME280;4690;52.422;13.486;2023-03-19T01:09:22;101057.88;;;9.93;67.12
9695;BME280;4690;52.422;13.486;2023-03-19T01:11:48;101059.38;;;9.89;67.18
9695;BME280;4690;52.422;13.486;2023-03-19T01:14:16;101061.69;;;9.85;67.17
9695;BME280;4690;52.422;13.486;2023-03-19T01:16:42;101062.09;;;9.82;67.11
9695;BME280;4690;52.422;13.486;2023-03-19T01:19:08;101065.28;;;9.79;67.63
9695;BME280;4690;52.422;13.486;2023-03-19T01:21:34;101063.59;;;9.78;67.72
9695;BME280;4690;52.422;13.486;2023-03-19T01:24:01;101061.06;;;9.77;67.52
9695;BME280;4690;52.422;13.486;2023-03-19T01:26:27;101057.72;;;9.75;67.55
9695;BME280;4690;52.422;13.486;2023-03-19T01:28:53;101058.16;;;9.72;67.94
9695;BME280;4690;52.422;13.486;2023-03-19T01:31:21;101060.25;;;9.70;67.70
9695;BME280;4690;52.422;13.486;2023-03-19T01:33:47;101054.38;;;9.66;68.22
9695;BME280;4690;52.422;13.486;2023-03-19T01:36:13;101065.50;;;9.64;68.09
9695;BME280;4690;52.422;13.486;2023-03-19T01:38:39;101054.56;;;9.64;67.98
9695;BME280;4690;52.422;13.486;2023-03-19T01:41:05;101044.06;;;9.61;68.39
9695;BME280;4690;52.422;13.486;2023-03-19T01:43:32;101056.06;;;9.60;68.52
9695;BME280;4690;52.422;13.486;2023-03-19T01:46:26;101067.63;;;9.56;68.40
9695;BME280;4690;52.422;13.486;2023-03-19T01:48:56;101064.25;;;9.54;68.18
9695;BME280;4690;52.422;13.486;2023-03-19T01:51:29;101071.63;;;9.53;68.57
9695;BME280;4690;52.422;13.486;2023-03-19T01:54:00;101079.00;;;9.53;68.69
9695;BME280;4690;52.422;13.486;2023-03-19T01:56:32;101064.69;;;9.51;68.33
9695;BME280;4690;52.422;13.486;2023-03-19T01:59:05;101063.03;;;9.50;68.93
9695;BME280;4690;52.422;13.486;2023-03-19T02:01:42;101057.53;;;9.50;68.47
9695;BME280;4690;52.422;13.486;2023-03-19T02:04:12;101053.97;;;9.49;69.04
9695;BME280;4690;52.422;13.486;2023-03-19T02:06:39;101054.78;;;9.43;69.09
9695;BME280;4690;52.422;13.486;2023-03-19T02:09:06;101056.94;;;9.41;68.65
9695;BME280;4690;52.422;13.486;2023-03-19T02:11:33;101049.16;;;9.38;68.85
9695;BME280;4690;52.422;13.486;2023-03-19T02:13:58;101063.84;;;9.37;68.73
9695;BME280;4690;52.422;13.486;2023-03-19T02:16:24;101059.22;;;9.37;69.01
9695;BME280;4690;52.422;13.486;2023-03-19T02:18:51;101052.50;;;9.40;68.54
9695;BME280;4690;52.422;13.486;2023-03-19T02:21:19;101046.81;;;9.41;68.59
9695;BME280;4690;52.422;13.486;2023-03-19T02:24:01;101051.03;;;9.44;68.48
9695;BME280;4690;52.422;13.486;2023-03-19T02:26:29;101051.88;;;9.45;68.96
9695;BME280;4690;52.422;13.486;2023-03-19T02:28:56;101048.72;;;9.41;69.05
9695;BME280;4690;52.422;13.486;2023-03-19T02:31:22;101043.44;;;9.39;69.49
9695;BME280;4690;52.422;13.486;2023-03-19T02:34:05;101055.44;;;9.45;69.08
9695;BME280;4690;52.422;13.486;2023-03-19T02:36:50;101062.78;;;9.51;69.08
9695;BME280;4690;52.422;13.486;2023-03-19T02:39:40;101040.28;;;9.56;68.70
9695;BME280;4690;52.422;13.486;2023-03-19T02:42:10;101040.91;;;9.58;69.19
9695;BME280;4690;52.422;13.486;2023-03-19T02:44:36;101045.53;;;9.51;68.96
9695;BME280;4690;52.422;13.486;2023-03-19T02:47:03;101048.47;;;9.56;69.04
9695;BME280;4690;52.422;13.486;2023-03-19T02:49:29;101045.53;;;9.64;68.55
9695;BME280;4690;52.422;13.486;2023-03-19T02:51:55;101047.19;;;9.72;68.50
9695;BME280;4690;52.422;13.486;2023-03-19T02:54:22;101051.19;;;9.76;68.67
9695;BME280;4690;52.422;13.486;2023-03-19T02:56:47;101049.06;;;9.78;68.73
9695;BME280;4690;52.422;13.486;2023-03-19T02:59:13;101047.19;;;9.78;68.36
9695;BME280;4690;52.422;13.486;2023-03-19T03:01:39;101049.31;;;9.70;67.62
9695;BME280;4690;52.422;13.486;2023-03-19T03:04:06;101048.03;;;9.65;67.67
9695;BME280;4690;52.422;13.486;2023-03-19T03:06:31;101050.16;;;9.63;67.52
9695;BME280;4690;52.422;13.486;2023-03-19T03:08:57;101049.31;;;9.70;67.50
9695;BME280;4690;52.422;13.486;2023-03-19T03:11:23;101051.59;;;9.73;67.02
9695;BME280;4690;52.422;13.486;2023-03-19T03:13:49;101060.47;;;9.75;67.70
9695;BME280;4690;52.422;13.486;2023-03-19T03:16:14;101059.00;;;9.72;67.07
9695;BME280;4690;52.422;13.486;2023-03-19T03:18:40;101050.16;;;9.57;66.52
9695;BME280;4690;52.422;13.486;2023-03-19T03:21:06;101049.56;;;9.55;66.93
9695;BME280;4690;52.422;13.486;2023-03-19T03:23:32;101046.38;;;9.58;66.34
9695;BME280;4690;52.422;13.486;2023-03-19T03:25:58;101058.59;;;9.55;66.08
9695;BME280;4690;52.422;13.486;2023-03-19T03:28:24;101061.53;;;9.60;65.81
9695;BME280;4690;52.422;13.486;2023-03-19T03:30:50;101063.22;;;9.61;65.93
9695;BME280;4690;52.422;13.486;2023-03-19T03:33:16;101062.16;;;9.62;65.92
9695;BME280;4690;52.422;13.486;2023-03-19T03:35:42;101067.41;;;9.64;66.56
9695;BME280;4690;52.422;13.486;2023-03-19T03:38:08;101056.25;;;9.65;66.74
9695;BME280;4690;52.422;13.486;2023-03-19T03:40:34;101052.66;;;9.65;66.81
9695;BME280;4690;52.422;13.486;2023-03-19T03:43:01;101064.69;;;9.64;66.79
9695;BME280;4690;52.422;13.486;2023-03-19T03:45:26;101058.56;;;9.62;66.02
9695;BME280;4690;52.422;13.486;2023-03-19T03:47:52;101076.88;;;9.61;65.89
9695;BME280;4690;52.422;13.486;2023-03-19T03:50:18;101088.47;;;9.63;65.90
9695;BME280;4690;52.422;13.486;2023-03-19T03:52:44;101083.84;;;9.64;65.96
9695;BME280;4690;52.422;13.486;2023-03-19T03:55:10;101102.34;;;9.62;66.29
9695;BME280;4690;52.422;13.486;2023-03-19T03:57:36;101107.81;;;9.62;66.02
9695;BME280;4690;52.422;13.486;2023-03-19T04:00:02;101100.69;;;9.61;65.86
9695;BME280;4690;52.422;13.486;2023-03-19T04:02:28;101112.06;;;9.58;66.02
9695;BME280;4690;52.422;13.486;2023-03-19T04:04:54;101107.19;;;9.53;66.56
9695;BME280;4690;52.422;13.486;2023-03-19T04:07:20;101105.53;;;9.52;66.51
9695;BME280;4690;52.422;13.486;2023-03-19T04:09:46;101101.97;;;9.52;66.34
9695;BME280;4690;52.422;13.486;2023-03-19T04:12:13;101108.69;;;9.49;66.46
9695;BME280;4690;52.422;13.486;2023-03-19T04:14:39;101109.09;;;9.46;66.83
9695;BME280;4690;52.422;13.486;2023-03-19T04:17:05;101113.72;;;9.46;67.10
9695;BME280;4690;52.422;13.486;2023-03-19T04:19:31;101117.50;;;9.45;67.37
9695;BME280;4690;52.422;13.486;2023-03-19T04:21:57;101113.72;;;9.46;67.23
9695;BME280;4690;52.422;13.486;2023-03-19T04:24:24;101118.34;;;9.45;67.22
9695;BME280;4690;52.422;13.486;2023-03-19T04:26:50;101121.50;;;9.49;67.35
9695;BME280;4690;52.422;13.486;2023-03-19T04:29:17;101126.78;;;9.50;67.92
9695;BME280;4690;52.422;13.486;2023-03-19T04:31:43;101120.25;;;9.51;67.94
9695;BME280;4690;52.422;13.486;2023-03-19T04:34:10;101130.16;;;9.52;67.71
9695;BME280;4690;52.422;13.486;2023-03-19T04:36:37;101133.91;;;9.51;67.84
9695;BME280;4690;52.422;13.486;2023-03-19T04:39:04;101141.69;;;9.54;67.86
9695;BME280;4690;52.422;13.486;2023-03-19T04:41:30;101136.88;;;9.56;67.91
9695;BME280;4690;52.422;13.486;2023-03-19T04:43:55;101120.88;;;9.60;67.83
9695;BME280;4690;52.422;13.486;2023-03-19T04:46:22;101127.19;;;9.60;67.99
9695;BME280;4690;52.422;13.486;2023-03-19T04:48:47;101132.66;;;9.67;67.52
9695;BME280;4690;52.422;13.486;2023-03-19T04:51:13;101128.44;;;9.71;66.88
9695;BME280;4690;52.422;13.486;2023-03-19T04:53:39;101131.81;;;9.73;66.81
9695;BME280;4690;52.422;13.486;2023-03-19T04:56:06;101129.31;;;9.72;66.82
9695;BME280;4690;52.422;13.486;2023-03-19T04:58:32;101139.38;;;9.71;66.93
9695;BME280;4690;52.422;13.486;2023-03-19T05:00:58;101144.47;;;9.61;67.21
9695;BME280;4690;52.422;13.486;2023-03-19T05:03:24;101131.63;;;9.55;67.21
9695;BME280;4690;52.422;13.486;2023-03-19T05:05:53;101135.41;;;9.60;67.60
9695;BME280;4690;52.422;13.486;2023-03-19T05:08:20;101125.94;;;9.70;67.53
9695;BME280;4690;52.422;13.486;2023-03-19T05:10:45;101118.75;;;9.62;68.11
9695;BME280;4690;52.422;13.486;2023-03-19T05:13:11;101104.69;;;9.58;68.19
9695;BME280;4690;52.422;13.486;2023-03-19T05:15:37;101100.88;;;9.59;68.42
9695;BME280;4690;52.422;13.486;2023-03-19T05:18:06;101102.13;;;9.57;67.76
9695;BME280;4690;52.422;13.486;2023-03-19T05:20:33;101103.41;;;9.54;67.50
9695;BME280;4690;52.422;13.486;2023-03-19T05:22:59;101099.00;;;9.53;66.80
9695;BME280;4690;52.422;13.486;2023-03-19T05:25:25;101103.19;;;9.56;67.06
9695;BME280;4690;52.422;13.486;2023-03-19T05:27:51;101109.94;;;9.67;66.83
9695;BME280;4690;52.422;13.486;2023-03-19T05:30:17;101109.50;;;9.76;66.76
9695;BME280;4690;52.422;13.486;2023-03-19T05:32:43;101098.16;;;9.66;66.96
9695;BME280;4690;52.422;13.486;2023-03-19T05:35:12;101099.84;;;9.47;66.83
9695;BME280;4690;52.422;13.486;2023-03-19T05:37:38;101106.34;;;9.59;66.84
9695;BME280;4690;52.422;13.486;2023-03-19T05:40:05;101103.59;;;9.73;66.33
9695;BME280;4690;52.422;13.486;2023-03-19T05:42:31;101112.22;;;9.83;66.53
9695;BME280;4690;52.422;13.486;2023-03-19T05:44:57;101112.00;;;9.91;66.04
9695;BME280;4690;52.422;13.486;2023-03-19T05:47:23;101116.63;;;9.97;65.80
9695;BME280;4690;52.422;13.486;2023-03-19T05:49:49;101118.50;;;10.03;65.88
9695;BME280;4690;52.422;13.486;2023-03-19T05:52:15;101104.19;;;10.01;65.77
9695;BME280;4690;52.422;13.486;2023-03-19T05:54:41;101097.91;;;9.94;65.36
9695;BME280;4690;52.422;13.486;2023-03-19T05:57:07;101113.22;;;10.02;64.98
9695;BME280;4690;52.422;13.486;2023-03-19T05:59:33;101111.56;;;10.01;65.22
9695;BME280;4690;52.422;13.486;2023-03-19T06:01:59;101120.44;;;9.83;65.83
9695;BME280;4690;52.422;13.486;2023-03-19T06:04:25;101117.47;;;9.84;65.97
9695;BME280;4690;52.422;13.486;2023-03-19T06:06:51;101103.53;;;9.99;65.83
9695;BME280;4690;52.422;13.486;2023-03-19T06:09:17;101100.16;;;10.10;65.06
9695;BME280;4690;52.422;13.486;2023-03-19T06:11:43;101099.75;;;10.07;64.70
9695;BME280;4690;52.422;13.486;2023-03-19T06:14:09;101107.09;;;10.13;64.61
9695;BME280;4690;52.422;13.486;2023-03-19T06:16:35;101106.28;;;10.06;64.32
9695;BME280;4690;52.422;13.486;2023-03-19T06:19:01;101105.22;;;10.14;64.38
9695;BME280;4690;52.422;13.486;2023-03-19T06:21:27;101108.56;;;10.29;63.80
9695;BME280;4690;52.422;13.486;2023-03-19T06:23:58;101111.25;;;10.42;62.89
9695;BME280;4690;52.422;13.486;2023-03-19T06:26:24;101111.25;;;10.42;62.65
9695;BME280;4690;52.422;13.486;2023-03-19T06:28:50;101121.28;;;10.62;61.95
9695;BME280;4690;52.422;13.486;2023-03-19T06:31:17;101115.13;;;10.66;61.60
9695;BME280;4690;52.422;13.486;2023-03-19T06:33:43;101119.78;;;10.66;61.58
9695;BME280;4690;52.422;13.486;2023-03-19T06:36:09;101131.56;;;10.73;61.50
9695;BME280;4690;52.422;13.486;2023-03-19T06:38:34;101130.47;;;10.81;60.78
9695;BME280;4690;52.422;13.486;2023-03-19T06:41:01;101130.69;;;10.79;61.31
9695;BME280;4690;52.422;13.486;2023-03-19T06:43:27;101135.72;;;10.82;61.12
9695;BME280;4690;52.422;13.486;2023-03-19T06:45:53;101141.94;;;11.03;61.02
9695;BME280;4690;52.422;13.486;2023-03-19T06:48:19;101149.34;;;11.02;60.57
9695;BME280;4690;52.422;13.486;2023-03-19T06:50:48;101149.88;;;10.79;61.39
9695;BME280;4690;52.422;13.486;2023-03-19T06:53:14;101165.09;;;10.68;61.52
9695;BME280;4690;52.422;13.486;2023-03-19T06:55:40;101168.97;;;10.54;62.71
9695;BME280;4690;52.422;13.486;2023-03-19T06:58:06;101182.19;;;10.70;61.70
9695;BME280;4690;52.422;13.486;2023-03-19T07:00:33;101186.31;;;10.93;61.31
9695;BME280;4690;52.422;13.486;2023-03-19T07:02:59;101187.19;;;10.80;61.64
9695;BME280;4690;52.422;13.486;2023-03-19T07:05:25;101185.31;;;10.74;62.22
9695;BME280;4690;52.422;13.486;2023-03-19T07:07:50;101197.31;;;10.80;62.36
9695;BME280;4690;52.422;13.486;2023-03-19T07:10:20;101201.25;;;10.97;62.24
9695;BME280;4690;52.422;13.486;2023-03-19T07:12:46;101222.25;;;11.16;61.96
9695;BME280;4690;52.422;13.486;2023-03-19T07:15:12;101238.72;;;11.16;61.77
9695;BME280;4690;52.422;13.486;2023-03-19T07:17:38;101247.34;;;11.20;61.81
9695;BME280;4690;52.422;13.486;2023-03-19T07:20:05;101266.28;;;11.28;61.85
9695;BME280;4690;52.422;13.486;2023-03-19T07:22:31;101265.00;;;11.31;61.84
9695;BME280;4690;52.422;13.486;2023-03-19T07:24:57;101247.47;;;11.32;62.05
9695;BME280;4690;52.422;13.486;2023-03-19T07:27:22;101255.50;;;11.33;62.35
9695;BME280;4690;52.422;13.486;2023-03-19T07:29:48;101258.19;;;11.47;62.37
9695;BME280;4690;52.422;13.486;2023-03-19T07:32:14;101237.19;;;11.59;62.50
9695;BME280;4690;52.422;13.486;2023-03-19T07:34:40;101241.53;;;11.73;62.32
9695;BME280;4690;52.422;13.486;2023-03-19T07:37:06;101230.25;;;11.88;62.08
9695;BME280;4690;52.422;13.486;2023-03-19T07:39:32;101214.84;;;11.87;61.80
9695;BME280;4690;52.422;13.486;2023-03-19T07:41:58;101219.44;;;11.93;61.37
9695;BME280;4690;52.422;13.486;2023-03-19T07:44:24;101219.97;;;12.02;61.82
9695;BME280;4690;52.422;13.486;2023-03-19T07:46:50;101205.22;;;12.03;61.18
9695;BME280;4690;52.422;13.486;2023-03-19T07:49:15;101208.59;;;12.23;61.37
9695;BME280;4690;52.422;13.486;2023-03-19T07:51:41;101203.03;;;12.30;60.21
9695;BME280;4690;52.422;13.486;2023-03-19T07:54:07;101196.63;;;12.54;60.18
9695;BME280;4690;52.422;13.486;2023-03-19T07:56:33;101198.84;;;12.83;59.13
9695;BME280;4690;52.422;13.486;2023-03-19T07:58:58;101186.88;;;13.07;58.02
9695;BME280;4690;52.422;13.486;2023-03-19T08:01:25;101178.06;;;13.47;57.81
9695;BME280;4690;52.422;13.486;2023-03-19T08:03:51;101184.16;;;14.15;56.19
9695;BME280;4690;52.422;13.486;2023-03-19T08:06:17;101191.50;;;14.85;53.50
9695;BME280;4690;52.422;13.486;2023-03-19T08:08:42;101191.06;;;15.33;52.19
9695;BME280;4690;52.422;13.486;2023-03-19T08:11:08;101190.16;;;15.73;50.62
9695;BME280;4690;52.422;13.486;2023-03-19T08:13:34;101188.00;;;15.75;50.79
9695;BME280;4690;52.422;13.486;2023-03-19T08:16:00;101196.19;;;16.04;50.15
9695;BME280;4690;52.422;13.486;2023-03-19T08:18:25;101207.41;;;16.31;49.54
9695;BME280;4690;52.422;13.486;2023-03-19T08:20:51;101203.09;;;16.40;48.76
9695;BME280;4690;52.422;13.486;2023-03-19T08:23:17;101203.75;;;16.08;49.91
9695;BME280;4690;52.422;13.486;2023-03-19T08:25:44;101205.09;;;15.89;50.86
9695;BME280;4690;52.422;13.486;2023-03-19T08:28:10;101215.28;;;15.72;51.72
9695;BME280;4690;52.422;13.486;2023-03-19T08:30:36;101219.28;;;15.07;53.70
9695;BME280;4690;52.422;13.486;2023-03-19T08:33:02;101248.84;;;15.23;54.09
9695;BME280;4690;52.422;13.486;2023-03-19T08:35:29;101282.19;;;15.05;54.89
9695;BME280;4690;52.422;13.486;2023-03-19T08:37:55;101291.53;;;14.33;57.29
9695;BME280;4690;52.422;13.486;2023-03-19T08:40:22;101306.03;;;13.75;59.15
9695;BME280;4690;52.422;13.486;2023-03-19T08:42:48;101295.50;;;13.41;60.81
9695;BME280;4690;52.422;13.486;2023-03-19T08:45:15;101304.34;;;12.88;62.97
9695;BME280;4690;52.422;13.486;2023-03-19T08:47:42;101306.94;;;12.65;64.83
9695;BME280;4690;52.422;13.486;2023-03-19T08:50:08;101311.41;;;12.84;64.44
9695;BME280;4690;52.422;13.486;2023-03-19T08:52:35;101311.59;;;12.83;64.45
9695;BME280;4690;52.422;13.486;2023-03-19T08:55:00;101311.59;;;12.83;70.49
9695;BME280;4690;52.422;13.486;2023-03-19T08:57:26;101309.81;;;12.51;75.21
9695;BME280;4690;52.422;13.486;2023-03-19T08:59:52;101300.06;;;12.30;77.06
9695;BME280;4690;52.422;13.486;2023-03-19T09:02:18;101302.09;;;12.17;78.29
9695;BME280;4690;52.422;13.486;2023-03-19T09:04:44;101288.72;;;11.95;80.95
9695;BME280;4690;52.422;13.486;2023-03-19T09:07:11;101270.19;;;11.84;81.83
9695;BME280;4690;52.422;13.486;2023-03-19T09:09:39;101263.31;;;11.68;84.03
9695;BME280;4690;52.422;13.486;2023-03-19T09:12:06;101239.41;;;11.43;85.86
9695;BME280;4690;52.422;13.486;2023-03-19T09:14:34;101216.97;;;11.15;88.73
9695;BME280;4690;52.422;13.486;2023-03-19T09:17:00;101196.16;;;11.00;89.85
9695;BME280;4690;52.422;13.486;2023-03-19T09:19:26;101191.38;;;10.89;90.96
9695;BME280;4690;52.422;13.486;2023-03-19T09:21:52;101178.56;;;10.76;92.29
9695;BME280;4690;52.422;13.486;2023-03-19T09:24:19;101179.66;;;10.69;93.11
9695;BME280;4690;52.422;13.486;2023-03-19T09:26:45;101183.22;;;10.76;93.74
9695;BME280;4690;52.422;13.486;2023-03-19T09:29:12;101183.38;;;10.81;93.84
9695;BME280;4690;52.422;13.486;2023-03-19T09:31:38;101190.16;;;10.79;93.78
9695;BME280;4690;52.422;13.486;2023-03-19T09:34:04;101199.81;;;10.88;93.70
9695;BME280;4690;52.422;13.486;2023-03-19T09:36:32;101206.69;;;11.04;93.34
9695;BME280;4690;52.422;13.486;2023-03-19T09:38:58;101203.09;;;11.03;93.41
9695;BME280;4690;52.422;13.486;2023-03-19T09:44:19;101187.13;;;10.93;93.82
9695;BME280;4690;52.422;13.486;2023-03-19T09:46:54;101176.91;;;10.69;94.47
9695;BME280;4690;52.422;13.486;2023-03-19T09:49:37;101170.88;;;10.53;94.62
9695;BME280;4690;52.422;13.486;2023-03-19T09:52:33;101174.69;;;10.46;95.16
9695;BME280;4690;52.422;13.486;2023-03-19T09:57:52;101187.38;;;10.34;96.67
9695;BME280;4690;52.422;13.486;2023-03-19T10:00:25;101192.41;;;10.37;97.05
9695;BME280;4690;52.422;13.486;2023-03-19T10:03:07;101197.84;;;10.57;97.37
9695;BME280;4690;52.422;13.486;2023-03-19T10:17:06;101203.78;;;10.98;94.69
9695;BME280;4690;52.422;13.486;2023-03-19T10:19:54;101194.09;;;10.89;95.10
9695;BME280;4690;52.422;13.486;2023-03-19T10:22:29;101199.38;;;10.91;95.37
9695;BME280;4690;52.422;13.486;2023-03-19T10:24:56;101207.94;;;11.08;95.33
9695;BME280;4690;52.422;13.486;2023-03-19T10:27:27;101207.22;;;11.26;95.27
9695;BME280;4690;52.422;13.486;2023-03-19T10:29:54;101189.13;;;11.18;94.86
9695;BME280;4690;52.422;13.486;2023-03-19T10:32:39;101191.00;;;11.17;95.38
9695;BME280;4690;52.422;13.486;2023-03-19T10:35:22;101196.22;;;11.32;95.88
9695;BME280;4690;52.422;13.486;2023-03-19T10:37:49;101203.88;;;11.49;95.51
9695;BME280;4690;52.422;13.486;2023-03-19T10:40:33;101201.41;;;11.72;95.16
9695;BME280;4690;52.422;13.486;2023-03-19T10:43:19;101188.16;;;11.94;94.99
9695;BME280;4690;52.422;13.486;2023-03-19T10:45:47;101184.16;;;12.15;94.55
9695;BME280;4690;52.422;13.486;2023-03-19T10:48:17;101182.28;;;12.34;94.55
9695;BME280;4690;52.422;13.486;2023-03-19T10:50:52;101194.25;;;12.58;94.39
9695;BME280;4690;52.422;13.486;2023-03-19T10:53:33;101184.25;;;12.82;94.40
9695;BME280;4690;52.422;13.486;2023-03-19T10:56:05;101191.31;;;13.08;94.25
9695;BME280;4690;52.422;13.486;2023-03-19T10:58:35;101187.97;;;13.36;94.12
9695;BME280;4690;52.422;13.486;2023-03-19T11:01:11;101192.81;;;13.53;93.53
9695;BME280;4690;52.422;13.486;2023-03-19T11:03:51;101182.09;;;13.98;93.70
9695;BME280;4690;52.422;13.486;2023-03-19T11:06:34;101186.66;;;14.40;92.23
9695;BME280;4690;52.422;13.486;2023-03-19T11:11:43;101181.19;;;16.17;87.77
9695;BME280;4690;52.422;13.486;2023-03-19T11:14:24;101174.66;;;16.84;84.42
9695;BME280;4690;52.422;13.486;2023-03-19T11:17:01;101184.81;;;16.78;79.06
9695;BME280;4690;52.422;13.486;2023-03-19T11:19:43;101185.56;;;16.51;76.88
9695;BME280;4690;52.422;13.486;2023-03-19T11:22:31;101184.31;;;16.42;77.60
9695;BME280;4690;52.422;13.486;2023-03-19T11:25:24;101184.72;;;16.51;78.65
9695;BME280;4690;52.422;13.486;2023-03-19T11:28:06;101184.59;;;16.63;79.91
9695;BME280;4690;52.422;13.486;2023-03-19T11:36:56;101189.28;;;17.01;80.55
9695;BME280;4690;52.422;13.486;2023-03-19T11:48:20;101178.13;;;17.23;78.55
9695;BME280;4690;52.422;13.486;2023-03-19T11:51:39;101176.63;;;17.10;76.61
9695;BME280;4690;52.422;13.486;2023-03-19T11:54:19;101170.09;;;17.21;77.35
9695;BME280;4690;52.422;13.486;2023-03-19T11:57:02;101168.22;;;17.54;78.42
9695;BME280;4690;52.422;13.486;2023-03-19T12:11:26;101161.56;;;17.55;76.59
9695;BME280;4690;52.422;13.486;2023-03-19T12:19:52;101166.00;;;17.02;75.12
9695;BME280;4690;52.422;13.486;2023-03-19T12:28:21;101161.59;;;16.79;76.98
9695;BME280;4690;52.422;13.486;2023-03-19T12:31:26;101162.78;;;16.66;77.00
9695;BME280;4690;52.422;13.486;2023-03-19T12:34:23;101161.38;;;16.86;77.34
9695;BME280;4690;52.422;13.486;2023-03-19T12:37:25;101163.84;;;17.04;77.84
9695;BME280;4690;52.422;13.486;2023-03-19T12:40:46;101157.19;;;17.05;76.46
9695;BME280;4690;52.422;13.486;2023-03-19T12:42:45;101159.50;;;17.13;77.10
9695;BME280;4690;52.422;13.486;2023-03-19T12:45:34;101152.38;;;17.22;77.00
9695;BME280;4690;52.422;13.486;2023-03-19T12:50:38;101141.41;;;17.33;74.95
9695;BME280;4690;52.422;13.486;2023-03-19T12:53:29;101150.66;;;17.43;74.04
9695;BME280;4690;52.422;13.486;2023-03-19T12:56:06;101149.84;;;17.48;71.99
9695;BME280;4690;52.422;13.486;2023-03-19T12:58:52;101145.94;;;17.44;72.12
9695;BME280;4690;52.422;13.486;2023-03-19T13:01:37;101142.56;;;17.69;71.28
9695;BME280;4690;52.422;13.486;2023-03-19T13:04:25;101143.00;;;17.83;70.33
9695;BME280;4690;52.422;13.486;2023-03-19T13:07:15;101145.69;;;17.78;69.39
9695;BME280;4690;52.422;13.486;2023-03-19T13:10:20;101144.94;;;17.55;70.11
9695;BME280;4690;52.422;13.486;2023-03-19T13:12:49;101145.06;;;17.38;68.27
9695;BME280;4690;52.422;13.486;2023-03-19T13:15:30;101153.25;;;17.82;68.51
9695;BME280;4690;52.422;13.486;2023-03-19T13:21:20;101155.38;;;18.12;61.91
9695;BME280;4690;52.422;13.486;2023-03-19T13:24:06;101158.69;;;18.09;62.46
9695;BME280;4690;52.422;13.486;2023-03-19T13:26:38;101149.69;;;18.34;60.52
9695;BME280;4690;52.422;13.486;2023-03-19T13:29:20;101152.84;;;18.53;59.23
9695;BME280;4690;52.422;13.486;2023-03-19T13:31:47;101147.00;;;18.50;55.53
9695;BME280;4690;52.422;13.486;2023-03-19T13:36:50;101142.63;;;18.69;57.49
9695;BME280;4690;52.422;13.486;2023-03-19T13:39:20;101142.38;;;18.71;55.43
9695;BME280;4690;52.422;13.486;2023-03-19T13:42:08;101136.81;;;18.71;53.98
9695;BME280;4690;52.422;13.486;2023-03-19T13:44:48;101139.69;;;18.86;54.87
9695;BME280;4690;52.422;13.486;2023-03-19T14:03:24;101122.63;;;18.62;51.57
9695;BME280;4690;52.422;13.486;2023-03-19T14:05:54;101123.16;;;18.54;51.69
9695;BME280;4690;52.422;13.486;2023-03-19T14:08:41;101126.94;;;18.37;52.97
9695;BME280;4690;52.422;13.486;2023-03-19T14:11:09;101126.91;;;18.32;51.96
9695;BME280;4690;52.422;13.486;2023-03-19T14:13:42;101121.34;;;18.22;53.36
9695;BME280;4690;52.422;13.486;2023-03-19T14:16:25;101120.00;;;18.35;53.24
9695;BME280;4690;52.422;13.486;2023-03-19T14:19:01;101124.00;;;18.59;52.54
9695;BME280;4690;52.422;13.486;2023-03-19T14:21:40;101119.03;;;18.62;52.92
9695;BME280;4690;52.422;13.486;2023-03-19T14:24:39;101113.13;;;18.48;51.56
9695;BME280;4690;52.422;13.486;2023-03-19T14:27:43;101112.94;;;18.65;50.37
9695;BME280;4690;52.422;13.486;2023-03-19T14:32:47;101104.63;;;18.70;50.32
9695;BME280;4690;52.422;13.486;2023-03-19T14:35:17;101106.78;;;18.57;50.89
9695;BME280;4690;52.422;13.486;2023-03-19T14:37:50;101114.41;;;18.30;52.41
9695;BME280;4690;52.422;13.486;2023-03-19T14:40:44;101115.94;;;18.53;52.46
9695;BME280;4690;52.422;13.486;2023-03-19T14:47:03;101104.69;;;18.85;51.79
9695;BME280;4690;52.422;13.486;2023-03-19T14:55:14;101111.34;;;18.89;49.94
9695;BME280;4690;52.422;13.486;2023-03-19T14:57:42;101107.50;;;18.95;50.42
9695;BME280;4690;52.422;13.486;2023-03-19T15:00:17;101110.53;;;18.94;50.26